createdAt,value
2017-12-23T00:01:32.641Z,102463
2017-12-23T00:04:00.719Z,102446
2017-12-23T00:06:28.789Z,102447
2017-12-23T00:08:56.873Z,102446
2017-12-23T00:11:24.939Z,102442
2017-12-23T00:13:53.030Z,102444
2017-12-23T00:16:21.862Z,102425
2017-12-23T00:18:49.906Z,102429
2017-12-23T00:21:18.005Z,102425
2017-12-23T00:23:46.121Z,102420
2017-12-23T00:26:14.941Z,102419
2017-12-23T00:28:43.015Z,102413
2017-12-23T00:31:11.082Z,102399
2017-12-23T00:33:39.151Z,102396
2017-12-23T00:36:07.223Z,102385
2017-12-23T00:38:35.294Z,102383
2017-12-23T00:41:04.166Z,102393
2017-12-23T00:43:32.233Z,102388
2017-12-23T00:46:00.308Z,102377
2017-12-23T00:48:28.426Z,102372
2017-12-23T00:50:56.577Z,102387
2017-12-23T00:53:24.993Z,102391
2017-12-23T00:55:53.078Z,102390
2017-12-23T00:58:21.920Z,102387
2017-12-23T01:00:49.995Z,102374
2017-12-23T01:03:18.613Z,102371
2017-12-23T01:05:46.682Z,102345
2017-12-23T01:08:14.750Z,102351
2017-12-23T01:10:42.834Z,102335
2017-12-23T01:13:10.901Z,102338
2017-12-23T01:15:38.971Z,102342
2017-12-23T01:18:07.142Z,102324
2017-12-23T01:20:35.209Z,102340
2017-12-23T01:23:03.274Z,102343
2017-12-23T01:25:31.355Z,102339
2017-12-23T01:27:59.417Z,102360
2017-12-23T01:30:27.492Z,102332
2017-12-23T01:32:55.558Z,102341
2017-12-23T01:35:23.617Z,102332
2017-12-23T01:37:51.699Z,102325
2017-12-23T01:40:19.758Z,102320
2017-12-23T01:42:47.828Z,102301
2017-12-23T01:47:58.530Z,102301
2017-12-23T01:50:26.599Z,102306
2017-12-23T01:52:54.675Z,102307
2017-12-23T01:55:22.855Z,102298
2017-12-23T01:57:51.022Z,102303
2017-12-23T02:00:19.094Z,102296
2017-12-23T02:02:47.183Z,102296
2017-12-23T02:05:15.250Z,102296
2017-12-23T02:07:43.314Z,102288
2017-12-23T02:10:11.388Z,102281
2017-12-23T02:12:39.459Z,102281
2017-12-23T02:15:07.543Z,102282
2017-12-23T02:17:35.611Z,102291
2017-12-23T02:20:03.680Z,102271
2017-12-23T02:22:31.742Z,102276
2017-12-23T02:24:59.810Z,102274
2017-12-23T02:27:27.878Z,102281
2017-12-23T02:29:56.052Z,102274
2017-12-23T02:32:24.914Z,102272
2017-12-23T02:34:52.973Z,102274
2017-12-23T02:37:21.795Z,102265
2017-12-23T02:39:49.878Z,102262
2017-12-23T02:42:17.938Z,102267
2017-12-23T02:44:46.011Z,102259
2017-12-23T02:47:14.173Z,102265
2017-12-23T02:49:42.235Z,102241
2017-12-23T02:52:10.303Z,102232
2017-12-23T02:54:38.395Z,102232
2017-12-23T02:57:06.454Z,102240
2017-12-23T02:59:34.529Z,102243
2017-12-23T03:02:03.349Z,102243
2017-12-23T03:04:32.210Z,102256
2017-12-23T03:07:00.283Z,102246
2017-12-23T03:09:28.442Z,102243
2017-12-23T03:11:56.519Z,102245
2017-12-23T03:14:24.591Z,102244
2017-12-23T03:16:52.670Z,102246
2017-12-23T03:19:20.740Z,102230
2017-12-23T03:21:48.830Z,102239
2017-12-23T03:24:17.059Z,102242
2017-12-23T03:26:45.147Z,102247
2017-12-23T03:29:13.228Z,102250
2017-12-23T03:31:41.302Z,102248
2017-12-23T03:34:09.380Z,102232
2017-12-23T03:36:38.250Z,102225
2017-12-23T03:39:06.353Z,102212
2017-12-23T03:41:35.210Z,102210
2017-12-23T03:44:03.286Z,102211
2017-12-23T03:46:31.351Z,102203
2017-12-23T03:48:59.514Z,102190
2017-12-23T03:51:27.578Z,102180
2017-12-23T03:53:55.646Z,102179
2017-12-23T03:56:23.729Z,102180
2017-12-23T03:58:51.903Z,102168
2017-12-23T04:01:20.070Z,102176
2017-12-23T04:03:48.151Z,102167
2017-12-23T04:06:16.219Z,102165
2017-12-23T04:08:44.286Z,102166
2017-12-23T04:11:12.368Z,102169
2017-12-23T04:13:40.443Z,102159
2017-12-23T04:16:08.506Z,102165
2017-12-23T04:18:36.578Z,102165
2017-12-23T04:21:04.645Z,102152
2017-12-23T04:23:32.713Z,102147
2017-12-23T04:26:00.786Z,102140
2017-12-23T04:28:28.859Z,102151
2017-12-23T04:30:56.943Z,102149
2017-12-23T04:33:25.768Z,102141
2017-12-23T04:35:53.855Z,102154
2017-12-23T04:38:22.506Z,102147
2017-12-23T04:40:50.601Z,102138
2017-12-23T04:43:18.666Z,102137
2017-12-23T04:45:46.815Z,102133
2017-12-23T04:48:15.662Z,102116
2017-12-23T04:50:43.822Z,102140
2017-12-23T04:53:11.894Z,102114
2017-12-23T04:55:39.975Z,102106
2017-12-23T04:58:08.037Z,102105
2017-12-23T05:00:36.112Z,102103
2017-12-23T05:03:04.316Z,102089
2017-12-23T05:05:33.179Z,102079
2017-12-23T05:08:01.249Z,102078
2017-12-23T05:10:29.322Z,102087
2017-12-23T05:12:57.399Z,102084
2017-12-23T05:15:25.458Z,102074
2017-12-23T05:17:53.616Z,102079
2017-12-23T05:20:21.684Z,102086
2017-12-23T05:22:49.746Z,102082
2017-12-23T05:25:17.801Z,102077
2017-12-23T05:27:45.875Z,102068
2017-12-23T05:30:13.938Z,102076
2017-12-23T05:32:42.014Z,102069
2017-12-23T05:35:11.621Z,102079
2017-12-23T05:37:39.724Z,102090
2017-12-23T05:40:07.781Z,102085
2017-12-23T05:42:35.914Z,102084
2017-12-23T05:45:03.965Z,102092
2017-12-23T05:47:32.826Z,102086
2017-12-23T05:50:00.997Z,102075
2017-12-23T05:52:29.061Z,102079
2017-12-23T05:54:57.134Z,102078
2017-12-23T05:57:25.213Z,102076
2017-12-23T05:59:53.289Z,102058
2017-12-23T06:02:21.361Z,102061
2017-12-23T06:04:49.422Z,102068
2017-12-23T06:07:17.502Z,102040
2017-12-23T06:09:45.561Z,102047
2017-12-23T06:12:13.622Z,102047
2017-12-23T06:14:41.787Z,102037
2017-12-23T06:17:09.853Z,102030
2017-12-23T06:19:37.943Z,102010
2017-12-23T06:22:06.022Z,102011
2017-12-23T06:24:34.190Z,102006
2017-12-23T06:27:02.254Z,102013
2017-12-23T06:29:30.367Z,101992
2017-12-23T06:31:59.206Z,102027
2017-12-23T06:34:27.379Z,102019
2017-12-23T06:36:55.458Z,101999
2017-12-23T06:39:23.532Z,101999
2017-12-23T06:41:51.598Z,101997
2017-12-23T06:44:19.770Z,101987
2017-12-23T06:46:47.841Z,101973
2017-12-23T06:49:15.906Z,101977
2017-12-23T06:51:44.085Z,101953
2017-12-23T06:54:12.149Z,101961
2017-12-23T06:56:40.218Z,101958
2017-12-23T06:59:08.286Z,101967
2017-12-23T07:01:36.374Z,101966
2017-12-23T07:04:04.552Z,101950
2017-12-23T07:06:33.483Z,101954
2017-12-23T07:09:01.548Z,101967
2017-12-23T07:11:29.606Z,101964
2017-12-23T07:13:58.447Z,101942
2017-12-23T07:16:26.519Z,101956
2017-12-23T07:18:54.594Z,101959
2017-12-23T07:21:23.666Z,101945
2017-12-23T07:23:51.747Z,101944
2017-12-23T07:26:19.814Z,101947
2017-12-23T07:28:47.886Z,101947
2017-12-23T07:31:16.041Z,101933
2017-12-23T07:33:44.119Z,101921
2017-12-23T07:36:12.399Z,101926
2017-12-23T07:38:40.486Z,101939
2017-12-23T07:41:08.591Z,101927
2017-12-23T07:43:37.463Z,101909
2017-12-23T07:46:05.530Z,101926
2017-12-23T07:48:33.597Z,101918
2017-12-23T07:51:02.284Z,101910
2017-12-23T07:53:30.353Z,101896
2017-12-23T07:55:58.418Z,101900
2017-12-23T07:58:26.602Z,101894
2017-12-23T08:00:54.766Z,101892
2017-12-23T08:03:22.848Z,101901
2017-12-23T08:05:51.058Z,101891
2017-12-23T08:08:19.125Z,101885
2017-12-23T08:10:47.198Z,101884
2017-12-23T08:13:15.269Z,101870
2017-12-23T08:15:43.572Z,101870
2017-12-23T08:18:11.705Z,101858
2017-12-23T08:20:40.573Z,101865
2017-12-23T08:23:08.651Z,101872
2017-12-23T08:25:37.083Z,101859
2017-12-23T08:28:05.341Z,101859
2017-12-23T08:30:33.467Z,101848
2017-12-23T08:33:01.546Z,101850
2017-12-23T08:35:29.718Z,101871
2017-12-23T08:37:57.782Z,101850
2017-12-23T08:40:26.604Z,101852
2017-12-23T08:42:55.323Z,101857
2017-12-23T08:45:23.390Z,101846
2017-12-23T08:47:51.461Z,101848
2017-12-23T08:50:19.543Z,101845
2017-12-23T08:52:47.632Z,101847
2017-12-23T08:55:15.710Z,101844
2017-12-23T08:57:43.873Z,101827
2017-12-23T09:00:12.734Z,101833
2017-12-23T09:02:40.838Z,101840
2017-12-23T09:05:08.916Z,101850
2017-12-23T09:07:36.986Z,101846
2017-12-23T09:10:05.105Z,101854
2017-12-23T09:12:33.183Z,101860
2017-12-23T09:15:01.260Z,101887
2017-12-23T09:17:29.319Z,101879
2017-12-23T09:19:57.377Z,101878
2017-12-23T09:22:25.463Z,101888
2017-12-23T09:24:53.642Z,101890
2017-12-23T09:27:21.723Z,101885
2017-12-23T09:29:49.807Z,101895
2017-12-23T09:32:17.923Z,101884
2017-12-23T09:34:46.770Z,101896
2017-12-23T09:37:14.838Z,101892
2017-12-23T09:39:42.907Z,101879
2017-12-23T09:42:10.978Z,101888
2017-12-23T09:44:39.038Z,101877
2017-12-23T09:47:07.133Z,101879
2017-12-23T09:49:35.200Z,101859
2017-12-23T09:52:03.279Z,101859
2017-12-23T09:54:31.449Z,101844
2017-12-23T09:56:59.521Z,101848
2017-12-23T09:59:27.607Z,101837
2017-12-23T10:01:56.454Z,101838
2017-12-23T10:04:24.515Z,101840
2017-12-23T10:06:52.620Z,101856
2017-12-23T10:09:20.681Z,101848
2017-12-23T10:11:48.766Z,101840
2017-12-23T10:14:16.830Z,101842
2017-12-23T10:16:44.893Z,101827
2017-12-23T10:19:12.965Z,101819
2017-12-23T10:21:41.043Z,101830
2017-12-23T10:24:09.122Z,101828
2017-12-23T10:26:37.187Z,101832
2017-12-23T10:29:05.259Z,101835
2017-12-23T10:31:33.342Z,101826
2017-12-23T10:34:01.546Z,101813
2017-12-23T10:36:29.917Z,101822
2017-12-23T10:38:57.991Z,101813
2017-12-23T10:41:26.050Z,101802
2017-12-23T10:43:54.893Z,101790
2017-12-23T10:46:22.949Z,101789
2017-12-23T10:48:51.043Z,101786
2017-12-23T10:51:19.109Z,101784
2017-12-23T10:53:47.170Z,101787
2017-12-23T10:56:15.250Z,101782
2017-12-23T10:58:43.326Z,101788
2017-12-23T11:01:11.387Z,101777
2017-12-23T11:03:39.459Z,101781
2017-12-23T11:06:07.813Z,101760
2017-12-23T11:08:35.879Z,101755
2017-12-23T11:11:03.952Z,101752
2017-12-23T11:13:32.057Z,101743
2017-12-23T11:16:00.204Z,101742
2017-12-23T11:18:28.266Z,101731
2017-12-23T11:20:56.344Z,101736
2017-12-23T11:23:24.700Z,101726
2017-12-23T11:25:52.767Z,101719
2017-12-23T11:28:20.917Z,101704
2017-12-23T11:30:49.772Z,101691
2017-12-23T11:33:17.836Z,101674
2017-12-23T11:35:45.902Z,101680
2017-12-23T11:38:13.967Z,101692
2017-12-23T11:40:42.048Z,101682
2017-12-23T11:43:10.110Z,101677
2017-12-23T11:45:38.178Z,101674
2017-12-23T11:48:06.256Z,101666
2017-12-23T11:50:34.532Z,101670
2017-12-23T11:53:02.605Z,101675
2017-12-23T11:55:30.675Z,101663
2017-12-23T11:57:58.739Z,101671
2017-12-23T12:00:27.510Z,101639
2017-12-23T12:02:55.587Z,101627
2017-12-23T12:05:23.646Z,101638
2017-12-23T12:07:51.706Z,101625
2017-12-23T12:10:19.928Z,101626
2017-12-23T12:12:47.998Z,101638
2017-12-23T12:15:16.078Z,101605
2017-12-23T12:17:44.126Z,101602
2017-12-23T12:20:12.204Z,101594
2017-12-23T12:22:40.265Z,101603
2017-12-23T12:25:08.338Z,101587
2017-12-23T12:27:36.399Z,101583
2017-12-23T12:30:04.462Z,101589
2017-12-23T12:32:32.563Z,101577
2017-12-23T12:35:00.690Z,101577
2017-12-23T12:37:28.754Z,101572
2017-12-23T12:39:56.814Z,101559
2017-12-23T12:42:25.650Z,101581
2017-12-23T12:44:53.730Z,101566
2017-12-23T12:47:21.782Z,101585
2017-12-23T12:49:49.859Z,101580
2017-12-23T12:52:17.929Z,101575
2017-12-23T12:54:46.003Z,101563
2017-12-23T12:57:14.098Z,101565
2017-12-23T12:59:42.168Z,101550
2017-12-23T13:02:10.227Z,101556
2017-12-23T13:04:38.298Z,101569
2017-12-23T13:07:06.373Z,101548
2017-12-23T13:09:34.502Z,101554
2017-12-23T13:12:02.569Z,101559
2017-12-23T13:14:31.326Z,101558
2017-12-23T13:17:00.177Z,101560
2017-12-23T13:19:28.249Z,101549
2017-12-23T13:21:56.348Z,101533
2017-12-23T13:24:24.410Z,101543
2017-12-23T13:26:52.486Z,101530
2017-12-23T13:29:20.556Z,101539
2017-12-23T13:31:48.625Z,101538
2017-12-23T13:34:16.686Z,101519
2017-12-23T13:36:44.772Z,101536
2017-12-23T13:39:12.839Z,101538
2017-12-23T13:41:40.988Z,101550
2017-12-23T13:44:09.171Z,101537
2017-12-23T13:46:37.226Z,101541
2017-12-23T13:49:05.299Z,101547
2017-12-23T13:51:33.375Z,101536
2017-12-23T13:54:01.446Z,101550
2017-12-23T13:56:29.515Z,101552
2017-12-23T13:58:57.576Z,101543
2017-12-23T14:01:25.638Z,101541
2017-12-23T14:03:53.698Z,101542
2017-12-23T14:06:21.774Z,101530
2017-12-23T14:08:49.830Z,101540
2017-12-23T14:11:17.895Z,101538
2017-12-23T14:13:45.982Z,101525
2017-12-23T14:16:14.051Z,101529
2017-12-23T14:18:42.164Z,101519
2017-12-23T14:21:15.052Z,101522
2017-12-23T14:23:43.375Z,101511
2017-12-23T14:26:11.450Z,101524
2017-12-23T14:28:39.532Z,101525
2017-12-23T14:31:07.608Z,101515
2017-12-23T14:33:35.670Z,101512
2017-12-23T14:36:03.754Z,101505
2017-12-23T14:38:41.742Z,101493
2017-12-23T14:41:10.241Z,101515
2017-12-23T14:43:38.730Z,101527
2017-12-23T14:46:06.806Z,101501
2017-12-23T14:48:34.865Z,101512
2017-12-23T14:51:02.950Z,101511
2017-12-23T14:53:31.010Z,101504
2017-12-23T14:55:59.107Z,101513
2017-12-23T14:58:27.246Z,101524
2017-12-23T15:00:55.393Z,101508
2017-12-23T15:03:23.505Z,101508
2017-12-23T15:05:51.673Z,101512
2017-12-23T15:08:19.750Z,101510
2017-12-23T15:10:47.860Z,101518
2017-12-23T15:13:15.991Z,101511
2017-12-23T15:15:44.055Z,101514
2017-12-23T15:18:12.118Z,101508
2017-12-23T15:20:40.191Z,101518
2017-12-23T15:23:08.265Z,101520
2017-12-23T15:25:36.369Z,101514
2017-12-23T15:28:05.215Z,101515
2017-12-23T15:30:33.274Z,101539
2017-12-23T15:33:01.355Z,101518
2017-12-23T15:35:30.335Z,101525
2017-12-23T15:37:58.435Z,101519
2017-12-23T15:40:26.501Z,101523
2017-12-23T15:42:54.567Z,101523
2017-12-23T15:45:22.644Z,101520
2017-12-23T15:47:50.715Z,101525
2017-12-23T15:50:28.714Z,101517
2017-12-23T15:52:56.783Z,101523
2017-12-23T15:55:24.856Z,101528
2017-12-23T15:57:52.927Z,101525
2017-12-23T16:00:21.065Z,101515
2017-12-23T16:02:49.124Z,101522
2017-12-23T16:05:17.219Z,101518
2017-12-23T16:07:45.547Z,101514
2017-12-23T16:10:14.378Z,101510
2017-12-23T16:12:43.149Z,101515
2017-12-23T16:15:11.534Z,101506
2017-12-23T16:17:40.161Z,101513
2017-12-23T16:20:08.221Z,101518
2017-12-23T16:22:36.293Z,101500
2017-12-23T16:25:04.733Z,101501
2017-12-23T16:27:32.810Z,101507
2017-12-23T16:30:00.888Z,101494
2017-12-23T16:32:28.967Z,101493
2017-12-23T16:34:57.064Z,101494
2017-12-23T16:37:25.815Z,101499
2017-12-23T16:39:53.887Z,101503
2017-12-23T16:42:21.979Z,101492
2017-12-23T16:44:50.040Z,101488
2017-12-23T16:47:19.018Z,101489
2017-12-23T16:49:47.087Z,101488
2017-12-23T16:52:15.169Z,101489
2017-12-23T16:54:43.234Z,101492
2017-12-23T16:57:11.312Z,101496
2017-12-23T16:59:39.381Z,101489
2017-12-23T17:02:07.480Z,101490
2017-12-23T17:04:35.551Z,101429
2017-12-23T17:07:03.618Z,101501
2017-12-23T17:09:31.694Z,101494
2017-12-23T17:11:59.770Z,101495
2017-12-23T17:14:28.194Z,101477
2017-12-23T17:16:56.322Z,101499
2017-12-23T17:19:24.390Z,101496
2017-12-23T17:21:52.463Z,101505
2017-12-23T17:24:21.306Z,101496
2017-12-23T17:26:49.365Z,101497
2017-12-23T17:29:35.251Z,101491
2017-12-23T17:32:03.357Z,101494
2017-12-23T17:34:31.530Z,101494
2017-12-23T17:36:59.594Z,101493
2017-12-23T17:39:27.670Z,101475
2017-12-23T17:41:56.103Z,101485
2017-12-23T17:44:24.227Z,101472
2017-12-23T17:46:52.282Z,101450
2017-12-23T17:49:20.346Z,101465
2017-12-23T17:51:48.429Z,101447
2017-12-23T17:54:16.520Z,101445
2017-12-23T17:56:44.895Z,101452
2017-12-23T17:59:12.971Z,101451
2017-12-23T18:01:41.063Z,101448
2017-12-23T18:04:09.138Z,101469
2017-12-23T18:06:37.215Z,101466
2017-12-23T18:09:05.289Z,101473
2017-12-23T18:11:34.178Z,101480
2017-12-23T18:14:02.243Z,101485
2017-12-23T18:16:31.098Z,101477
2017-12-23T18:18:59.187Z,101477
2017-12-23T18:21:28.019Z,101469
2017-12-23T18:23:56.086Z,101478
2017-12-23T18:26:24.171Z,101455
2017-12-23T18:28:52.242Z,101466
2017-12-23T18:31:20.306Z,101463
2017-12-23T18:33:48.375Z,101453
2017-12-23T18:36:16.442Z,101451
2017-12-23T18:38:44.542Z,101448
2017-12-23T18:41:13.514Z,101446
2017-12-23T18:43:41.826Z,101439
2017-12-23T18:46:09.886Z,101451
2017-12-23T18:48:37.958Z,101441
2017-12-23T18:51:06.023Z,101459
2017-12-23T18:53:34.791Z,101447
2017-12-23T18:56:02.932Z,101447
2017-12-23T18:58:31.877Z,101448
2017-12-23T19:00:59.937Z,101444
2017-12-23T19:03:28.005Z,101441
2017-12-23T19:05:56.099Z,101451
2017-12-23T19:08:24.162Z,101457
2017-12-23T19:10:52.236Z,101443
2017-12-23T19:13:20.307Z,101433
2017-12-23T19:15:51.193Z,101449
2017-12-23T19:18:19.266Z,101453
2017-12-23T19:20:47.326Z,101447
2017-12-23T19:23:15.397Z,101451
2017-12-23T19:25:43.475Z,101429
2017-12-23T19:28:11.539Z,101415
2017-12-23T19:30:39.614Z,101435
2017-12-23T19:33:08.026Z,101444
2017-12-23T19:35:36.104Z,101435
2017-12-23T19:38:04.172Z,101427
2017-12-23T19:40:32.824Z,101426
2017-12-23T19:43:00.890Z,101435
2017-12-23T19:45:28.978Z,101430
2017-12-23T19:47:57.043Z,101434
2017-12-23T19:50:25.139Z,101415
2017-12-23T19:52:53.218Z,101418
2017-12-23T19:55:21.550Z,101438
2017-12-23T19:57:49.632Z,101434
2017-12-23T20:00:17.795Z,101440
2017-12-23T20:02:45.858Z,101449
2017-12-23T20:05:13.939Z,101459
2017-12-23T20:07:42.018Z,101472
2017-12-23T20:10:11.003Z,101459
2017-12-23T20:12:39.085Z,101455
2017-12-23T20:15:07.169Z,101456
2017-12-23T20:17:35.298Z,101448
2017-12-23T20:20:03.376Z,101458
2017-12-23T20:22:31.454Z,101453
2017-12-23T20:24:59.534Z,101450
2017-12-23T20:27:27.606Z,101456
2017-12-23T20:29:55.677Z,101465
2017-12-23T20:32:23.758Z,101461
2017-12-23T20:34:51.846Z,101440
2017-12-23T20:37:19.995Z,101440
2017-12-23T20:39:48.083Z,101439
2017-12-23T20:42:16.207Z,101439
2017-12-23T20:44:44.325Z,101433
2017-12-23T20:47:12.401Z,101438
2017-12-23T20:49:40.473Z,101417
2017-12-23T20:52:08.880Z,101419
2017-12-23T20:54:37.878Z,101420
2017-12-23T20:57:06.726Z,101429
2017-12-23T20:59:34.802Z,101423
2017-12-23T21:02:04.010Z,101414
2017-12-23T21:04:32.407Z,101415
2017-12-23T21:07:02.378Z,101407
2017-12-23T21:09:30.464Z,101415
2017-12-23T21:11:58.630Z,101415
2017-12-23T21:14:26.838Z,101413
2017-12-23T21:16:56.283Z,101414
2017-12-23T21:19:24.851Z,101414
2017-12-23T21:21:52.964Z,101411
2017-12-23T21:24:21.823Z,101399
2017-12-23T21:26:49.914Z,101397
2017-12-23T21:29:17.999Z,101407
2017-12-23T21:31:46.078Z,101402
2017-12-23T21:34:14.263Z,101413
2017-12-23T21:36:43.111Z,101411
2017-12-23T21:39:11.192Z,101415
2017-12-23T21:41:39.281Z,101400
2017-12-23T21:44:07.358Z,101404
2017-12-23T21:46:35.651Z,101410
2017-12-23T21:49:04.486Z,101406
2017-12-23T21:51:32.679Z,101400
2017-12-23T21:54:00.750Z,101432
2017-12-23T21:56:28.830Z,101401
2017-12-23T21:58:56.908Z,101417
2017-12-23T22:01:25.745Z,101396
2017-12-23T22:03:53.818Z,101391
2017-12-23T22:06:21.906Z,101408
2017-12-23T22:08:49.995Z,101400
2017-12-23T22:11:18.079Z,101397
2017-12-23T22:13:46.499Z,101394
2017-12-23T22:16:14.624Z,101415
2017-12-23T22:18:42.694Z,101391
2017-12-23T22:21:10.765Z,101381
2017-12-23T22:23:38.839Z,101375
2017-12-23T22:26:06.910Z,101388
2017-12-23T22:28:35.782Z,101374
2017-12-23T22:31:03.855Z,101382
2017-12-23T22:33:31.922Z,101391
2017-12-23T22:35:59.994Z,101394
2017-12-23T22:38:28.127Z,101383
2017-12-23T22:40:56.240Z,101382
2017-12-23T22:43:24.310Z,101366
2017-12-23T22:45:52.382Z,101373
2017-12-23T22:48:20.523Z,101370
2017-12-23T22:50:48.623Z,101363
2017-12-23T22:53:16.702Z,101340
2017-12-23T22:55:44.859Z,101343
2017-12-23T22:58:12.938Z,101355
2017-12-23T23:00:41.009Z,101335
2017-12-23T23:03:09.088Z,101349
2017-12-23T23:05:37.162Z,101343
2017-12-23T23:08:05.246Z,101374
2017-12-23T23:10:34.602Z,101361
2017-12-23T23:13:02.679Z,101332
2017-12-23T23:15:30.763Z,101335
2017-12-23T23:17:58.838Z,101340
2017-12-23T23:20:26.920Z,101333
2017-12-23T23:22:55.770Z,101339
2017-12-23T23:25:23.855Z,101335
2017-12-23T23:27:52.627Z,101334
2017-12-23T23:30:20.710Z,101339
2017-12-23T23:32:48.796Z,101326
2017-12-23T23:35:17.578Z,101356
2017-12-23T23:37:45.663Z,101327
2017-12-23T23:40:13.755Z,101338
2017-12-23T23:42:42.714Z,101318
2017-12-23T23:45:10.877Z,101326
2017-12-23T23:47:38.965Z,101329
2017-12-23T23:50:07.150Z,101331
2017-12-23T23:52:35.998Z,101324
2017-12-23T23:55:04.093Z,101318
2017-12-23T23:57:32.174Z,101322
